Time;durP1;ratioP1;P1;durP2;ratioP2;P2;SDS_P1;SDS_P2;PMS_P1;PMS_P2;Temp;Humidity;BMP_temperature;BMP_pressure;BME280_temperature;BME280_humidity;BME280_pressure;Samples;Min_cycle;Max_cycle;Signal;HPM_P1;HPM_P2
2022/07/17 00:00:44;;;;;;;7.70;3.50;;;;;;;;;;4894744;29;20131;-72
2022/07/17 00:03:11;;;;;;;10.38;3.55;;;;;;;;;;4905015;29;20395;-75
2022/07/17 00:05:37;;;;;;;9.82;3.50;;;;;;;;;;4907265;29;20057;-75
2022/07/17 00:08:06;;;;;;;8.73;3.60;;;;;;;;;;4906539;29;20053;-72
2022/07/17 00:10:32;;;;;;;7.10;3.70;;;;;;;;;;4903696;29;20051;-73
2022/07/17 00:12:58;;;;;;;9.38;3.60;;;;;;;;;;4907261;29;20052;-72
2022/07/17 00:15:24;;;;;;;6.65;3.13;;;;;;;;;;4910785;29;20061;-72
2022/07/17 00:17:50;;;;;;;6.90;3.22;;;;;;;;;;4902558;29;20056;-74
2022/07/17 00:20:16;;;;;;;7.72;3.35;;;;;;;;;;4911681;29;20087;-74
2022/07/17 00:22:43;;;;;;;6.07;3.38;;;;;;;;;;4908620;29;20135;-73
2022/07/17 00:25:09;;;;;;;4.47;3.55;;;;;;;;;;4907289;29;20052;-74
2022/07/17 00:27:37;;;;;;;8.80;3.55;;;;;;;;;;4916857;29;20075;-75
2022/07/17 00:30:04;;;;;;;4.85;3.60;;;;;;;;;;4897069;29;20487;-71
2022/07/17 00:32:30;;;;;;;5.78;3.33;;;;;;;;;;4911592;29;20047;-72
2022/07/17 00:34:56;;;;;;;6.20;3.40;;;;;;;;;;4899194;29;20060;-73
2022/07/17 00:37:22;;;;;;;5.03;3.38;;;;;;;;;;4904958;29;20052;-74
2022/07/17 00:39:48;;;;;;;6.53;3.28;;;;;;;;;;4900761;29;20096;-74
2022/07/17 00:42:15;;;;;;;6.85;3.60;;;;;;;;;;4901129;29;20056;-73
2022/07/17 00:44:42;;;;;;;6.10;3.70;;;;;;;;;;4909735;29;20052;-74
2022/07/17 00:47:17;;;;;;;7.18;3.63;;;;;;;;;;4913068;29;20056;-75
2022/07/17 00:49:45;;;;;;;5.45;3.63;;;;;;;;;;4917347;29;20048;-75
2022/07/17 00:55:41;;;;;;;6.75;3.55;;;;;;;;;;4915279;29;20122;-72
2022/07/17 00:58:08;;;;;;;6.25;3.63;;;;;;;;;;4897112;29;20055;-73
2022/07/17 01:00:35;;;;;;;6.75;3.40;;;;;;;;;;4907603;29;20757;-74
2022/07/17 01:03:01;;;;;;;8.60;4.00;;;;;;;;;;4913121;29;20054;-75
2022/07/17 01:05:27;;;;;;;5.70;4.25;;;;;;;;;;4919088;29;20134;-73
2022/07/17 01:07:53;;;;;;;12.68;4.30;;;;;;;;;;4916271;29;20056;-73
2022/07/17 01:10:19;;;;;;;12.38;4.38;;;;;;;;;;4892724;29;20411;-74
2022/07/17 01:12:46;;;;;;;5.43;4.13;;;;;;;;;;4898393;29;20040;-74
2022/07/17 01:15:13;;;;;;;7.70;4.13;;;;;;;;;;4906002;29;20052;-72
2022/07/17 01:17:39;;;;;;;8.93;4.43;;;;;;;;;;4909672;29;20048;-73
2022/07/17 01:20:06;;;;;;;13.20;4.32;;;;;;;;;;4910849;29;20178;-72
2022/07/17 01:22:38;;;;;;;8.32;4.35;;;;;;;;;;4906582;29;20060;-74
2022/07/17 01:25:05;;;;;;;8.65;4.57;;;;;;;;;;4901718;29;20053;-73
2022/07/17 01:27:31;;;;;;;11.43;4.70;;;;;;;;;;4896326;29;20131;-72
2022/07/17 01:29:57;;;;;;;11.35;5.30;;;;;;;;;;4905117;29;20566;-74
2022/07/17 01:32:41;;;;;;;10.90;5.30;;;;;;;;;;4906002;29;20048;-73
2022/07/17 01:35:10;;;;;;;13.40;5.35;;;;;;;;;;4916267;29;20146;-75
2022/07/17 01:37:38;;;;;;;12.60;5.50;;;;;;;;;;4909513;29;20056;-75
2022/07/17 01:40:04;;;;;;;13.65;5.30;;;;;;;;;;4905766;29;20118;-77
2022/07/17 01:42:31;;;;;;;14.80;5.47;;;;;;;;;;4907529;29;20056;-76
2022/07/17 01:44:57;;;;;;;9.82;5.10;;;;;;;;;;4900177;29;20068;-74
2022/07/17 01:47:23;;;;;;;12.35;5.00;;;;;;;;;;4907552;29;20060;-75
2022/07/17 01:49:53;;;;;;;11.13;5.13;;;;;;;;;;4905514;29;20057;-74
2022/07/17 01:52:21;;;;;;;8.23;5.03;;;;;;;;;;4896425;29;20056;-74
2022/07/17 01:54:47;;;;;;;11.50;5.05;;;;;;;;;;4899380;29;20056;-76
2022/07/17 01:57:14;;;;;;;16.50;4.82;;;;;;;;;;4912463;29;20055;-74
2022/07/17 01:59:40;;;;;;;13.85;5.28;;;;;;;;;;4890210;29;20045;-74
2022/07/17 02:02:07;;;;;;;8.68;4.78;;;;;;;;;;4900476;29;20052;-74
2022/07/17 02:04:34;;;;;;;11.32;5.00;;;;;;;;;;4901707;29;20045;-76
2022/07/17 02:07:01;;;;;;;12.10;4.70;;;;;;;;;;4895309;29;20111;-74
2022/07/17 02:09:27;;;;;;;11.80;4.80;;;;;;;;;;4906130;29;20134;-76
2022/07/17 02:11:53;;;;;;;10.10;4.90;;;;;;;;;;4900632;29;20142;-75
2022/07/17 02:14:19;;;;;;;14.77;4.88;;;;;;;;;;4898846;29;20509;-76
2022/07/17 02:16:45;;;;;;;13.13;4.80;;;;;;;;;;4908676;29;20071;-74
2022/07/17 02:19:11;;;;;;;11.90;4.38;;;;;;;;;;4899798;29;20064;-75
2022/07/17 02:21:37;;;;;;;10.65;4.50;;;;;;;;;;4912583;29;20058;-75
2022/07/17 02:24:04;;;;;;;9.00;4.78;;;;;;;;;;4893762;29;20157;-75
2022/07/17 02:26:30;;;;;;;8.77;4.85;;;;;;;;;;4903689;29;20045;-75
2022/07/17 02:28:56;;;;;;;6.68;4.47;;;;;;;;;;4892111;29;20798;-77
2022/07/17 02:31:21;;;;;;;8.20;4.50;;;;;;;;;;4907856;29;20503;-75
2022/07/17 02:33:47;;;;;;;9.95;4.55;;;;;;;;;;4898639;29;20164;-74
2022/07/17 02:36:13;;;;;;;10.55;4.72;;;;;;;;;;4907159;29;20047;-76
2022/07/17 02:38:40;;;;;;;9.95;4.60;;;;;;;;;;4896897;29;20152;-74
2022/07/17 02:41:06;;;;;;;7.97;4.80;;;;;;;;;;4904905;29;20048;-73
2022/07/17 02:43:32;;;;;;;9.93;4.38;;;;;;;;;;4914471;29;20056;-75
2022/07/17 02:45:58;;;;;;;13.07;4.90;;;;;;;;;;4904364;29;20123;-74
2022/07/17 02:48:23;;;;;;;12.70;4.60;;;;;;;;;;4901544;29;20052;-77
2022/07/17 02:50:49;;;;;;;6.38;4.18;;;;;;;;;;4913126;29;20433;-74
2022/07/17 02:53:15;;;;;;;13.40;4.75;;;;;;;;;;4912096;29;20392;-74
2022/07/17 02:55:41;;;;;;;11.45;4.57;;;;;;;;;;4907892;29;20131;-75
2022/07/17 02:58:07;;;;;;;12.45;4.55;;;;;;;;;;4902024;29;20403;-75
2022/07/17 03:00:33;;;;;;;9.55;4.57;;;;;;;;;;4905989;29;20150;-76
2022/07/17 03:02:58;;;;;;;10.00;4.40;;;;;;;;;;4903663;29;20095;-75
2022/07/17 03:05:24;;;;;;;9.40;4.43;;;;;;;;;;4909539;29;20503;-75
2022/07/17 03:07:50;;;;;;;8.25;4.30;;;;;;;;;;4903629;29;20056;-75
2022/07/17 03:10:16;;;;;;;9.20;4.45;;;;;;;;;;4902842;29;20127;-74
2022/07/17 03:12:43;;;;;;;7.90;4.45;;;;;;;;;;4909333;29;20590;-74
2022/07/17 03:15:09;;;;;;;6.68;4.00;;;;;;;;;;4905839;29;20067;-75
2022/07/17 03:17:37;;;;;;;6.70;4.15;;;;;;;;;;4900679;29;20056;-74
2022/07/17 03:20:03;;;;;;;8.75;4.43;;;;;;;;;;4902380;29;20459;-75
2022/07/17 03:22:29;;;;;;;7.20;4.45;;;;;;;;;;4906373;29;20048;-76
2022/07/17 03:24:55;;;;;;;9.15;4.13;;;;;;;;;;4898441;29;20139;-76
2022/07/17 03:27:21;;;;;;;8.75;4.40;;;;;;;;;;4900388;29;20040;-75
2022/07/17 03:29:47;;;;;;;8.02;4.28;;;;;;;;;;4906341;29;20454;-76
2022/07/17 03:32:14;;;;;;;8.90;4.45;;;;;;;;;;4896252;29;20051;-74
2022/07/17 03:34:40;;;;;;;5.60;4.00;;;;;;;;;;4894098;29;20108;-75
2022/07/17 03:37:06;;;;;;;8.63;4.05;;;;;;;;;;4904178;29;20056;-76
2022/07/17 03:39:32;;;;;;;6.35;4.15;;;;;;;;;;4894814;29;20411;-75
2022/07/17 03:41:58;;;;;;;11.70;4.15;;;;;;;;;;4911474;29;20052;-75
2022/07/17 03:44:24;;;;;;;11.48;4.35;;;;;;;;;;4898952;29;20051;-76
2022/07/17 03:46:50;;;;;;;6.75;4.30;;;;;;;;;;4897750;29;20063;-73
2022/07/17 03:49:16;;;;;;;12.77;4.40;;;;;;;;;;4904902;29;20058;-73
2022/07/17 03:51:42;;;;;;;6.78;4.53;;;;;;;;;;4900207;29;20044;-76
2022/07/17 03:54:08;;;;;;;11.98;4.55;;;;;;;;;;4901487;29;20514;-76
2022/07/17 03:56:34;;;;;;;7.45;4.82;;;;;;;;;;4902125;29;20129;-75
2022/07/17 03:59:00;;;;;;;7.00;4.60;;;;;;;;;;4901139;29;20139;-75
2022/07/17 04:01:26;;;;;;;8.55;4.60;;;;;;;;;;4893843;29;20063;-76
2022/07/17 04:03:52;;;;;;;11.10;4.50;;;;;;;;;;4908155;29;20063;-75
2022/07/17 04:06:18;;;;;;;12.40;4.90;;;;;;;;;;4905906;29;20048;-75
2022/07/17 04:08:43;;;;;;;6.20;4.80;;;;;;;;;;4904422;29;20041;-76
2022/07/17 04:11:09;;;;;;;12.15;4.75;;;;;;;;;;4907777;29;20445;-75
2022/07/17 04:13:35;;;;;;;10.45;4.60;;;;;;;;;;4898070;29;20041;-75
2022/07/17 04:16:01;;;;;;;8.23;4.57;;;;;;;;;;4895451;29;20480;-74
2022/07/17 04:18:33;;;;;;;8.60;4.57;;;;;;;;;;4885679;29;20431;-76
2022/07/17 04:21:02;;;;;;;6.85;4.45;;;;;;;;;;4894301;29;20175;-75
2022/07/17 04:23:28;;;;;;;8.27;4.65;;;;;;;;;;4903141;29;20165;-77
2022/07/17 04:25:54;;;;;;;8.32;4.60;;;;;;;;;;4898901;29;20123;-76
2022/07/17 04:28:21;;;;;;;7.60;4.47;;;;;;;;;;4910191;29;20144;-76
2022/07/17 04:30:47;;;;;;;5.82;3.97;;;;;;;;;;4897463;29;20044;-75
2022/07/17 04:33:14;;;;;;;7.18;4.60;;;;;;;;;;4882993;29;20526;-75
2022/07/17 04:35:40;;;;;;;7.50;4.25;;;;;;;;;;4907610;29;20873;-75
2022/07/17 04:38:07;;;;;;;8.00;4.22;;;;;;;;;;4901988;29;20455;-75
2022/07/17 04:40:35;;;;;;;11.60;4.50;;;;;;;;;;4903002;29;20067;-75
2022/07/17 04:43:02;;;;;;;6.07;4.40;;;;;;;;;;4906063;29;20091;-76
2022/07/17 04:45:28;;;;;;;7.40;4.20;;;;;;;;;;4901231;29;20059;-77
2022/07/17 04:47:54;;;;;;;8.70;4.72;;;;;;;;;;4904325;29;20048;-75
2022/07/17 04:50:20;;;;;;;9.40;4.72;;;;;;;;;;4897089;29;20076;-74
2022/07/17 04:52:46;;;;;;;10.00;4.55;;;;;;;;;;4902033;29;20070;-74
2022/07/17 04:55:12;;;;;;;5.72;4.22;;;;;;;;;;4906434;29;20060;-75
2022/07/17 04:57:38;;;;;;;8.88;4.85;;;;;;;;;;4899739;29;20044;-77
2022/07/17 05:00:06;;;;;;;9.38;4.15;;;;;;;;;;4902614;29;20157;-78
2022/07/17 05:02:32;;;;;;;7.78;4.53;;;;;;;;;;4904812;29;20064;-76
2022/07/17 05:04:59;;;;;;;10.90;4.78;;;;;;;;;;4909800;29;20099;-75
2022/07/17 05:07:25;;;;;;;7.95;4.47;;;;;;;;;;4904349;29;20537;-77
2022/07/17 05:09:51;;;;;;;11.43;4.53;;;;;;;;;;4903343;29;20525;-76
2022/07/17 05:12:17;;;;;;;5.47;4.22;;;;;;;;;;4915953;29;20052;-77
2022/07/17 05:14:43;;;;;;;8.05;4.30;;;;;;;;;;4911798;29;20388;-74
2022/07/17 05:17:08;;;;;;;11.90;4.68;;;;;;;;;;4908174;29;20075;-83
2022/07/17 05:19:35;;;;;;;10.75;4.72;;;;;;;;;;4917517;29;20040;-79
2022/07/17 05:22:01;;;;;;;8.85;4.57;;;;;;;;;;4916095;29;20081;-79
2022/07/17 05:24:27;;;;;;;12.27;4.90;;;;;;;;;;4907627;29;20056;-77
2022/07/17 05:26:54;;;;;;;8.35;4.75;;;;;;;;;;4917796;29;20052;-81
2022/07/17 05:29:20;;;;;;;13.63;4.68;;;;;;;;;;4896922;29;20088;-73
2022/07/17 05:31:46;;;;;;;9.63;4.57;;;;;;;;;;4910891;29;20087;-78
2022/07/17 05:34:12;;;;;;;9.80;4.28;;;;;;;;;;4913559;29;20167;-75
2022/07/17 05:36:38;;;;;;;6.90;4.90;;;;;;;;;;4906500;29;20052;-78
2022/07/17 05:39:04;;;;;;;7.90;4.30;;;;;;;;;;4909257;29;20063;-76
2022/07/17 05:41:30;;;;;;;8.02;4.65;;;;;;;;;;4905529;29;20046;-74
2022/07/17 05:43:56;;;;;;;5.43;4.30;;;;;;;;;;4915686;29;20406;-74
2022/07/17 05:46:21;;;;;;;7.50;4.68;;;;;;;;;;4910107;29;20036;-77
2022/07/17 05:48:47;;;;;;;7.55;4.70;;;;;;;;;;4904398;29;20044;-76
2022/07/17 05:51:13;;;;;;;8.60;4.30;;;;;;;;;;4908150;29;20607;-79
2022/07/17 05:53:39;;;;;;;7.00;4.28;;;;;;;;;;4911575;29;20127;-76
2022/07/17 05:56:06;;;;;;;11.30;4.43;;;;;;;;;;4895668;29;20056;-76
2022/07/17 05:58:32;;;;;;;12.05;4.35;;;;;;;;;;4905311;29;20144;-75
2022/07/17 06:00:58;;;;;;;8.30;5.15;;;;;;;;;;4910630;29;20475;-75
2022/07/17 06:03:24;;;;;;;9.57;4.28;;;;;;;;;;4926996;29;20068;-78
2022/07/17 06:05:50;;;;;;;10.70;4.78;;;;;;;;;;4916649;29;20064;-77
2022/07/17 06:08:16;;;;;;;8.93;4.60;;;;;;;;;;4908589;29;20195;-75
2022/07/17 06:10:42;;;;;;;9.63;4.60;;;;;;;;;;4904330;29;20055;-76
2022/07/17 06:13:07;;;;;;;11.95;4.22;;;;;;;;;;4898198;29;20144;-75
2022/07/17 06:15:33;;;;;;;8.95;4.25;;;;;;;;;;4904547;29;20131;-75
2022/07/17 06:18:03;;;;;;;7.80;4.20;;;;;;;;;;4896840;29;20416;-78
2022/07/17 06:20:29;;;;;;;7.18;4.63;;;;;;;;;;4911160;29;20048;-81
2022/07/17 06:22:55;;;;;;;7.55;4.80;;;;;;;;;;4912084;29;20044;-83
2022/07/17 06:25:21;;;;;;;8.35;5.00;;;;;;;;;;4912866;29;20063;-76
2022/07/17 06:27:47;;;;;;;8.63;4.60;;;;;;;;;;4918279;29;20072;-79
2022/07/17 06:30:15;;;;;;;11.57;4.72;;;;;;;;;;4923105;29;20055;-80
2022/07/17 06:32:41;;;;;;;9.55;4.43;;;;;;;;;;4929285;29;20039;-75
2022/07/17 06:35:08;;;;;;;18.02;4.50;;;;;;;;;;4917953;29;20375;-80
2022/07/17 06:37:34;;;;;;;8.98;4.70;;;;;;;;;;4919098;29;20043;-79
2022/07/17 06:40:00;;;;;;;7.50;4.85;;;;;;;;;;4916738;29;20049;-83
2022/07/17 06:42:26;;;;;;;9.55;5.18;;;;;;;;;;4910058;29;20059;-79
2022/07/17 06:44:52;;;;;;;7.15;4.75;;;;;;;;;;4884712;29;20430;-75
2022/07/17 06:47:18;;;;;;;6.30;4.28;;;;;;;;;;4901488;29;20083;-76
2022/07/17 06:49:44;;;;;;;11.00;4.38;;;;;;;;;;4911987;29;20052;-73
2022/07/17 06:52:10;;;;;;;10.70;4.72;;;;;;;;;;4912178;29;20095;-76
2022/07/17 06:54:36;;;;;;;12.45;5.10;;;;;;;;;;4908784;29;20159;-76
2022/07/17 06:57:02;;;;;;;8.82;4.30;;;;;;;;;;4912169;29;20063;-77
2022/07/17 06:59:28;;;;;;;7.13;4.13;;;;;;;;;;4908057;29;20052;-78
2022/07/17 07:01:54;;;;;;;7.22;4.75;;;;;;;;;;4906052;29;20079;-76
2022/07/17 07:06:49;;;;;;;8.05;4.43;;;;;;;;;;4935455;23;20056;-81
2022/07/17 07:09:15;;;;;;;6.30;4.72;;;;;;;;;;4911299;29;20499;-80
2022/07/17 07:11:42;;;;;;;9.07;4.90;;;;;;;;;;4906302;29;20104;-82
2022/07/17 07:14:08;;;;;;;7.78;4.60;;;;;;;;;;4912213;29;20052;-79
2022/07/17 07:16:34;;;;;;;9.00;4.50;;;;;;;;;;4908764;29;20048;-80
2022/07/17 07:19:00;;;;;;;9.20;4.20;;;;;;;;;;5016666;23;20586;-76
2022/07/17 07:21:26;;;;;;;7.75;4.03;;;;;;;;;;4869329;29;20041;-77
2022/07/17 07:23:55;;;;;;;8.20;4.53;;;;;;;;;;4873160;29;20057;-78
2022/07/17 07:26:22;;;;;;;7.78;4.30;;;;;;;;;;4873946;29;20056;-72
2022/07/17 07:28:48;;;;;;;6.80;4.10;;;;;;;;;;4873437;29;20619;-74
2022/07/17 07:31:16;;;;;;;7.10;4.30;;;;;;;;;;4866947;29;20049;-79
2022/07/17 07:33:42;;;;;;;6.88;4.30;;;;;;;;;;4871816;29;20951;-71
2022/07/17 07:36:08;;;;;;;8.32;4.90;;;;;;;;;;4870090;29;20520;-74
2022/07/17 07:38:34;;;;;;;8.77;4.18;;;;;;;;;;4869778;29;20085;-75
2022/07/17 07:41:00;;;;;;;6.40;4.10;;;;;;;;;;4874129;29;20451;-78
2022/07/17 07:43:26;;;;;;;9.68;4.18;;;;;;;;;;4875316;29;20049;-79
2022/07/17 07:45:51;;;;;;;9.80;4.15;;;;;;;;;;4875245;29;20594;-78
2022/07/17 07:48:17;;;;;;;8.40;3.47;;;;;;;;;;4869954;29;20065;-73
2022/07/17 07:50:43;;;;;;;6.38;3.60;;;;;;;;;;4871220;29;20052;-74
2022/07/17 07:53:09;;;;;;;6.03;3.80;;;;;;;;;;4852810;29;20056;-75
2022/07/17 07:55:35;;;;;;;7.65;4.07;;;;;;;;;;4866045;29;20374;-77
2022/07/17 07:58:04;;;;;;;12.90;3.88;;;;;;;;;;4850333;29;20101;-73
2022/07/17 08:00:30;;;;;;;9.40;4.20;;;;;;;;;;4870198;29;20457;-76
2022/07/17 08:02:55;;;;;;;8.02;3.65;;;;;;;;;;4866655;29;20586;-74
2022/07/17 08:05:21;;;;;;;5.38;3.60;;;;;;;;;;4871471;29;20064;-79
2022/07/17 08:07:47;;;;;;;8.77;3.92;;;;;;;;;;4871540;29;20468;-75
2022/07/17 08:10:13;;;;;;;7.68;3.88;;;;;;;;;;4869292;29;20057;-73
2022/07/17 08:12:39;;;;;;;6.30;4.28;;;;;;;;;;4870955;29;20078;-76
2022/07/17 08:15:06;;;;;;;6.60;3.67;;;;;;;;;;4867676;29;20053;-76
2022/07/17 08:17:32;;;;;;;7.68;4.13;;;;;;;;;;4869486;29;20053;-72
2022/07/17 08:19:58;;;;;;;14.57;4.68;;;;;;;;;;4863802;29;20558;-74
2022/07/17 08:22:24;;;;;;;7.20;3.78;;;;;;;;;;4884612;29;20111;-74
2022/07/17 08:24:49;;;;;;;10.15;3.83;;;;;;;;;;4887428;29;20107;-75
2022/07/17 08:27:16;;;;;;;8.82;4.00;;;;;;;;;;4892668;29;20048;-79
2022/07/17 08:29:42;;;;;;;8.20;4.00;;;;;;;;;;4889056;29;20072;-77
2022/07/17 08:32:08;;;;;;;8.85;4.20;;;;;;;;;;4890704;29;20310;-77
2022/07/17 08:34:34;;;;;;;10.73;4.47;;;;;;;;;;4890819;29;20511;-78
2022/07/17 08:37:03;;;;;;;12.40;4.07;;;;;;;;;;4889732;29;20492;-73
2022/07/17 08:39:29;;;;;;;9.73;4.15;;;;;;;;;;4890177;29;20135;-75
2022/07/17 08:41:55;;;;;;;11.02;4.30;;;;;;;;;;4891698;29;20059;-76
2022/07/17 08:44:21;;;;;;;6.05;4.30;;;;;;;;;;4895748;29;20040;-73
2022/07/17 08:46:48;;;;;;;6.85;4.22;;;;;;;;;;4899834;29;20131;-76
2022/07/17 08:49:19;;;;;;;10.40;4.50;;;;;;;;;;4897239;29;20059;-79
2022/07/17 08:51:45;;;;;;;9.55;4.40;;;;;;;;;;4894939;29;20124;-76
2022/07/17 08:54:11;;;;;;;11.40;5.03;;;;;;;;;;4894023;29;20052;-77
2022/07/17 08:56:38;;;;;;;9.73;4.50;;;;;;;;;;4891617;29;20090;-75
2022/07/17 08:59:04;;;;;;;12.85;4.20;;;;;;;;;;4892456;29;20072;-78
2022/07/17 09:01:30;;;;;;;13.75;4.22;;;;;;;;;;4896765;29;20055;-77
2022/07/17 09:04:05;;;;;;;10.98;4.35;;;;;;;;;;4895187;29;20044;-77
2022/07/17 09:06:33;;;;;;;7.15;4.47;;;;;;;;;;4894891;29;20471;-79
2022/07/17 09:09:09;;;;;;;7.53;4.70;;;;;;;;;;4893677;29;20137;-81
2022/07/17 09:11:43;;;;;;;7.50;4.25;;;;;;;;;;4891849;29;20056;-77
2022/07/17 09:14:10;;;;;;;8.00;3.95;;;;;;;;;;4882615;29;20056;-74
2022/07/17 09:16:36;;;;;;;4.43;3.63;;;;;;;;;;4892911;29;20460;-74
2022/07/17 09:19:03;;;;;;;6.60;3.60;;;;;;;;;;4895779;29;20103;-78
2022/07/17 09:21:31;;;;;;;8.60;3.95;;;;;;;;;;4887580;29;20045;-78
2022/07/17 09:24:04;;;;;;;7.28;3.67;;;;;;;;;;4894372;29;20050;-76
2022/07/17 09:26:33;;;;;;;6.18;3.25;;;;;;;;;;4883240;29;20083;-72
2022/07/17 09:29:04;;;;;;;6.20;3.30;;;;;;;;;;4891755;29;20510;-78
2022/07/17 09:31:33;;;;;;;5.25;3.40;;;;;;;;;;4893420;29;20499;-77
2022/07/17 09:34:00;;;;;;;6.68;3.40;;;;;;;;;;4888859;29;20096;-76
2022/07/17 09:36:26;;;;;;;5.68;3.10;;;;;;;;;;4887707;29;20520;-76
2022/07/17 09:38:53;;;;;;;6.55;3.15;;;;;;;;;;4884107;29;20057;-75
2022/07/17 09:41:21;;;;;;;7.88;2.95;;;;;;;;;;4888422;29;20128;-74
2022/07/17 09:44:00;;;;;;;6.85;3.30;;;;;;;;;;4888694;29;20127;-75
2022/07/17 09:46:33;;;;;;;8.90;3.17;;;;;;;;;;4889007;29;20441;-78
2022/07/17 09:49:03;;;;;;;3.80;3.03;;;;;;;;;;4885278;29;20107;-75
2022/07/17 09:51:38;;;;;;;6.05;3.38;;;;;;;;;;4887681;29;20116;-71
2022/07/17 09:54:07;;;;;;;4.35;2.75;;;;;;;;;;4882149;29;20220;-74
2022/07/17 09:56:35;;;;;;;5.82;3.10;;;;;;;;;;4890425;29;20460;-75
2022/07/17 09:59:06;;;;;;;9.10;3.00;;;;;;;;;;4888924;29;20040;-74
2022/07/17 10:01:33;;;;;;;7.28;3.05;;;;;;;;;;4883203;29;20507;-74
2022/07/17 10:03:59;;;;;;;5.85;2.85;;;;;;;;;;4885307;29;20056;-74
2022/07/17 10:06:26;;;;;;;5.68;2.80;;;;;;;;;;4886255;29;20106;-74
2022/07/17 10:08:53;;;;;;;6.65;2.40;;;;;;;;;;4888477;29;20076;-76
2022/07/17 10:11:27;;;;;;;4.78;2.65;;;;;;;;;;4888842;29;20049;-75
2022/07/17 10:13:56;;;;;;;4.30;2.90;;;;;;;;;;4865219;29;20051;-77
2022/07/17 10:16:31;;;;;;;7.97;2.95;;;;;;;;;;4867007;29;20112;-75
2022/07/17 10:18:59;;;;;;;5.78;2.92;;;;;;;;;;4886876;29;20453;-74
2022/07/17 10:21:27;;;;;;;4.57;3.10;;;;;;;;;;4884657;29;20052;-77
2022/07/17 10:23:52;;;;;;;3.38;2.67;;;;;;;;;;4889651;29;20092;-73
2022/07/17 10:26:46;;;;;;;12.30;2.88;;;;;;;;;;4882673;29;20080;-74
2022/07/17 10:29:37;;;;;;;3.83;2.60;;;;;;;;;;4879811;29;20836;-74
2022/07/17 10:32:29;;;;;;;4.28;2.67;;;;;;;;;;4859512;29;20814;-73
2022/07/17 10:35:05;;;;;;;3.83;2.70;;;;;;;;;;4860630;29;20064;-73
2022/07/17 10:37:37;;;;;;;3.80;2.83;;;;;;;;;;4842064;29;20049;-73
2022/07/17 10:40:23;;;;;;;6.65;2.70;;;;;;;;;;4877626;29;20177;-74
2022/07/17 10:42:53;;;;;;;4.40;2.70;;;;;;;;;;4883691;29;20056;-73
2022/07/17 10:45:25;;;;;;;5.25;2.70;;;;;;;;;;4887634;29;20562;-74
2022/07/17 10:47:58;;;;;;;3.92;2.30;;;;;;;;;;4874981;29;20148;-75
2022/07/17 10:50:35;;;;;;;4.15;2.58;;;;;;;;;;4879793;29;20447;-75
2022/07/17 10:53:20;;;;;;;5.65;2.20;;;;;;;;;;4890496;29;20075;-72
2022/07/17 10:55:50;;;;;;;3.65;2.40;;;;;;;;;;4890384;29;20059;-78
2022/07/17 10:58:25;;;;;;;3.53;2.30;;;;;;;;;;4892171;29;20060;-75
2022/07/17 11:01:13;;;;;;;2.78;2.22;;;;;;;;;;4890351;29;20157;-74
2022/07/17 11:03:41;;;;;;;5.32;2.28;;;;;;;;;;4886880;29;20048;-75
2022/07/17 11:06:14;;;;;;;2.80;2.13;;;;;;;;;;4884506;29;20431;-79
2022/07/17 11:08:45;;;;;;;3.60;2.45;;;;;;;;;;4872081;29;20167;-75
2022/07/17 11:11:12;;;;;;;2.53;1.95;;;;;;;;;;4886486;29;20113;-74
2022/07/17 11:13:38;;;;;;;3.58;1.90;;;;;;;;;;4888886;29;20044;-72
2022/07/17 11:16:04;;;;;;;4.72;2.40;;;;;;;;;;4888506;29;20528;-79
2022/07/17 11:18:31;;;;;;;3.40;1.95;;;;;;;;;;4886163;29;20529;-76
2022/07/17 11:20:59;;;;;;;5.47;2.13;;;;;;;;;;4885301;29;20048;-73
2022/07/17 11:23:30;;;;;;;7.50;2.13;;;;;;;;;;4884501;29;20139;-73
2022/07/17 11:26:06;;;;;;;5.95;1.80;;;;;;;;;;4890134;29;20062;-80
2022/07/17 11:28:36;;;;;;;2.28;1.80;;;;;;;;;;4888792;29;20045;-78
2022/07/17 11:31:14;;;;;;;4.72;1.95;;;;;;;;;;4888331;29;20048;-74
2022/07/17 11:33:55;;;;;;;2.78;1.95;;;;;;;;;;4889668;29;20059;-74
2022/07/17 11:36:25;;;;;;;3.05;2.05;;;;;;;;;;4883333;29;20063;-73
2022/07/17 11:38:54;;;;;;;3.40;2.25;;;;;;;;;;4885480;29;20060;-74
2022/07/17 11:41:20;;;;;;;3.05;1.80;;;;;;;;;;4884484;29;20048;-70
2022/07/17 11:43:47;;;;;;;3.20;2.10;;;;;;;;;;4889182;29;20052;-74
2022/07/17 11:46:16;;;;;;;4.70;2.30;;;;;;;;;;4889050;29;20057;-74
2022/07/17 11:48:44;;;;;;;6.28;2.03;;;;;;;;;;4882017;29;20062;-73
2022/07/17 11:51:10;;;;;;;6.15;1.92;;;;;;;;;;4893089;29;20527;-76
2022/07/17 11:53:38;;;;;;;3.08;1.75;;;;;;;;;;4894455;29;20048;-73
2022/07/17 11:56:05;;;;;;;3.33;2.13;;;;;;;;;;4893381;29;20045;-69
2022/07/17 11:58:42;;;;;;;4.18;1.80;;;;;;;;;;4891530;29;20044;-68
2022/07/17 12:01:08;;;;;;;4.28;2.03;;;;;;;;;;4876961;29;20078;-67
2022/07/17 12:03:34;;;;;;;5.20;1.85;;;;;;;;;;4890410;29;20045;-71
2022/07/17 12:06:00;;;;;;;3.92;2.08;;;;;;;;;;4883465;29;20217;-71
2022/07/17 12:08:26;;;;;;;2.40;1.70;;;;;;;;;;4884243;29;20510;-70
2022/07/17 12:11:05;;;;;;;3.22;1.80;;;;;;;;;;4892915;29;20055;-73
2022/07/17 12:13:43;;;;;;;3.65;1.80;;;;;;;;;;4886511;29;20078;-72
2022/07/17 12:16:31;;;;;;;5.20;2.10;;;;;;;;;;4887826;29;20057;-71
2022/07/17 12:19:08;;;;;;;4.88;2.10;;;;;;;;;;4882997;29;20139;-74
2022/07/17 12:21:46;;;;;;;5.28;2.00;;;;;;;;;;4888638;29;20051;-71
2022/07/17 12:24:20;;;;;;;4.32;1.70;;;;;;;;;;4870148;29;20063;-72
2022/07/17 12:26:45;;;;;;;;;;;;;;;;;;4875502;29;20052;-72
2022/07/17 12:29:11;;;;;;;4.10;1.90;;;;;;;;;;4892216;29;19931;-71
2022/07/17 12:31:37;;;;;;;4.07;1.73;;;;;;;;;;4889009;29;20402;-71
2022/07/17 12:34:03;;;;;;;7.07;2.00;;;;;;;;;;4887536;29;20057;-72
2022/07/17 12:36:29;;;;;;;2.65;1.92;;;;;;;;;;4869907;29;20125;-72
2022/07/17 12:38:55;;;;;;;5.38;1.80;;;;;;;;;;4872138;29;20052;-73
2022/07/17 12:41:21;;;;;;;4.72;1.75;;;;;;;;;;4883877;29;20128;-73
2022/07/17 12:43:47;;;;;;;3.00;1.90;;;;;;;;;;4886448;29;20473;-71
2022/07/17 12:46:13;;;;;;;2.63;2.03;;;;;;;;;;4891618;29;20128;-70
2022/07/17 12:48:41;;;;;;;6.40;2.47;;;;;;;;;;4893032;29;20059;-70
2022/07/17 12:51:07;;;;;;;4.10;1.80;;;;;;;;;;4886892;29;20053;-70
2022/07/17 12:53:33;;;;;;;3.70;2.30;;;;;;;;;;4889801;29;20585;-71
2022/07/17 12:55:59;;;;;;;4.07;2.33;;;;;;;;;;4867440;29;20519;-73
2022/07/17 12:58:25;;;;;;;3.42;1.90;;;;;;;;;;4893438;29;20473;-74
2022/07/17 13:00:51;;;;;;;4.50;1.88;;;;;;;;;;4891160;29;20060;-75
2022/07/17 13:03:17;;;;;;;3.75;1.90;;;;;;;;;;4892768;29;20048;-74
2022/07/17 13:05:43;;;;;;;5.05;2.03;;;;;;;;;;4893301;29;20036;-73
2022/07/17 13:08:09;;;;;;;5.90;2.92;;;;;;;;;;4892987;29;20063;-74
2022/07/17 13:10:35;;;;;;;6.68;2.97;;;;;;;;;;4894567;29;20059;-74
2022/07/17 13:13:01;;;;;;;4.90;2.00;;;;;;;;;;4875059;29;20063;-77
2022/07/17 13:15:27;;;;;;;5.22;2.05;;;;;;;;;;4874936;29;20060;-73
2022/07/17 13:17:53;;;;;;;3.20;2.13;;;;;;;;;;4903229;29;20124;-74
2022/07/17 13:20:20;;;;;;;3.08;1.90;;;;;;;;;;4897222;29;20049;-75
2022/07/17 13:22:46;;;;;;;3.92;2.13;;;;;;;;;;4892189;29;20127;-75
2022/07/17 13:25:12;;;;;;;6.15;1.92;;;;;;;;;;4892756;29;20068;-74
2022/07/17 13:27:38;;;;;;;6.53;2.10;;;;;;;;;;4892589;29;20401;-73
2022/07/17 13:30:04;;;;;;;3.15;1.92;;;;;;;;;;4895170;29;20058;-75
2022/07/17 13:32:30;;;;;;;5.43;2.05;;;;;;;;;;4896186;29;20283;-75
2022/07/17 13:34:56;;;;;;;4.90;2.50;;;;;;;;;;4895494;29;20495;-75
2022/07/17 13:37:22;;;;;;;3.72;2.00;;;;;;;;;;4893683;29;20071;-75
2022/07/17 13:39:48;;;;;;;3.92;2.00;;;;;;;;;;4896021;29;20044;-73
2022/07/17 13:42:15;;;;;;;3.90;2.30;;;;;;;;;;4894488;29;20045;-77
2022/07/17 13:44:41;;;;;;;3.83;1.80;;;;;;;;;;4894815;29;20103;-75
2022/07/17 13:47:07;;;;;;;6.90;2.30;;;;;;;;;;4892117;29;20049;-77
2022/07/17 13:49:33;;;;;;;4.60;2.03;;;;;;;;;;4898363;29;20037;-72
2022/07/17 13:51:59;;;;;;;4.25;2.10;;;;;;;;;;4891052;29;20128;-75
2022/07/17 13:54:25;;;;;;;7.35;2.35;;;;;;;;;;4879167;29;20075;-74
2022/07/17 13:56:52;;;;;;;5.25;2.50;;;;;;;;;;4889872;29;20052;-72
2022/07/17 13:59:19;;;;;;;4.22;2.13;;;;;;;;;;4893670;29;20044;-71
2022/07/17 14:01:45;;;;;;;4.20;2.20;;;;;;;;;;4894925;29;20104;-73
2022/07/17 14:04:11;;;;;;;5.78;2.25;;;;;;;;;;4889860;29;20151;-68
2022/07/17 14:06:37;;;;;;;5.32;2.15;;;;;;;;;;4887428;29;20047;-72
2022/07/17 14:09:03;;;;;;;5.07;2.00;;;;;;;;;;4892257;29;20072;-71
2022/07/17 14:11:29;;;;;;;5.95;2.22;;;;;;;;;;4894780;29;20061;-74
2022/07/17 14:13:55;;;;;;;2.85;2.10;;;;;;;;;;4895233;29;20506;-73
2022/07/17 14:16:21;;;;;;;4.25;1.98;;;;;;;;;;4894288;29;20064;-72
2022/07/17 14:18:59;;;;;;;3.25;2.20;;;;;;;;;;4878981;29;20053;-71
2022/07/17 14:21:30;;;;;;;3.78;1.98;;;;;;;;;;4893033;29;20107;-74
2022/07/17 14:23:56;;;;;;;4.55;1.98;;;;;;;;;;4889563;29;20135;-72
2022/07/17 14:26:22;;;;;;;4.95;2.05;;;;;;;;;;4893938;29;20076;-74
2022/07/17 14:28:52;;;;;;;3.15;1.92;;;;;;;;;;4872441;29;20056;-73
2022/07/17 14:31:18;;;;;;;3.78;1.75;;;;;;;;;;4895466;29;20168;-72
2022/07/17 14:33:44;;;;;;;4.32;2.05;;;;;;;;;;4888361;29;20140;-73
2022/07/17 14:36:10;;;;;;;3.70;1.80;;;;;;;;;;4894302;29;20060;-72
2022/07/17 14:38:36;;;;;;;9.55;1.95;;;;;;;;;;4893776;29;20123;-71
2022/07/17 14:41:02;;;;;;;4.82;1.92;;;;;;;;;;4889480;29;20143;-73
2022/07/17 14:43:29;;;;;;;4.47;2.00;;;;;;;;;;4891983;29;20430;-73
2022/07/17 14:45:55;;;;;;;5.63;2.00;;;;;;;;;;4891573;29;20483;-73
2022/07/17 14:48:22;;;;;;;4.00;1.83;;;;;;;;;;4891491;29;20458;-71